x

Boston 16 Nm East Of Boston, Ma (44013) Wave Buoy

2:50pm - Sat 26th Jul 2014 All times are EDT. -4 hours from GMT.

  • Sig Wave height 1.3ft
  • Swell Direction
  • Peak Period 8s
  • Average Period 4s
  • Wind
    7mph, 9mph gusts
  • Sea Temp 65°f
  • Air Temp 70°f
  • Sea Pressure 1012.7mb
  • Boston 16 Nm East Of Boston, Ma
  • Boston 16 Nm East Of Boston, Ma

More Historic Weather Station data

Upgrade to MSW Pro to gain access to the past 30 days of data for over 8000 Wavebouys and Weather Stations around the globe.

Join Pro

Comparision Forecast

View Surf forecast
   
Sat 07/26 2:50pm 1.3ft 8s 4s 7 9 mph 1012.7mb 65f 70f
1:50pm 1.3ft 9s 4s 11
mph
1013mb 64f 70f
12:50pm 1.3ft 8s 4s 11
mph
1013.7mb 64f 67f
11:50am 1ft 8s 4s 11
mph
1014.3mb 64f 66f
10:50am 1ft 9s 5s 11 13 mph 1014.7mb 64f 66f
9:50am 1.3ft 9s 4s 7 9 mph 1015.2mb 63f 65f
8:50am 1.3ft 9s 5s 7
mph
1015.5mb 63f 64f
7:50am 1ft 10s 4s 7
mph
1015.5mb 63f 64f
6:50am 1.3ft 9s 4s 7 9 mph 1015.6mb 63f 63f
5:50am 1ft 9s 4s 9
mph
1015.4mb 63f 63f
4:50am 1ft 9s 4s 7 9 mph 1015.1mb 63f 63f
3:50am 1ft 9s 4s 11 13 mph 1015mb 63f 64f
2:50am 1ft 8s 5s 9
mph
1015mb 63f 64f
1:50am 1ft 9s 4s 7 9 mph 1014.8mb 63f 64f
12:50am 1.3ft 9s 4s 9
mph
1015mb 63f 65f
Fri 07/25 11:50pm 1.3ft 9s 4s 9 11 mph 1015mb 63f 65f
10:50pm 1.3ft 10s 5s 11 13 mph 1014.8mb 64f 66f
9:50pm 1.3ft 9s 4s 9
mph
1014.8mb 64f 67f
8:50pm 1.6ft 10s 4s 11 13 mph 1014.3mb 64f 67f
7:50pm 1.6ft 3s 4s 13 16 mph 1013.8mb 64f 67f
6:50pm 1.6ft 11s 4s 13 18 mph 1013.9mb 65f 67f
5:50pm 1.6ft 8s 4s 13 16 mph 1013.9mb 66f 68f
4:50pm 1.3ft 8s 5s 11 13 mph 1013.8mb 67f 68f
3:50pm 1.3ft 9s 5s 11
mph
1014mb 67f 68f
2:50pm 1ft 11s 5s 7
mph
1013.9mb 67f 69f
1:50pm 1.3ft 10s 4s 7
mph
1014.4mb 66f 68f
12:50pm 1.3ft 10s 4s 4 7 mph 1014.6mb 65f 67f
11:50am 1.3ft 9s 4s 4 7 mph 1015.2mb 64f 66f
10:50am 1.3ft 8s 5s 7
mph
1015.4mb 64f 64f
9:50am 1.3ft 9s 5s 7 9 mph 1015.1mb 63f 63f
8:50am 1.6ft 9s 4s 7 9 mph 1014.7mb 63f 62f
7:50am 1.6ft 10s 4s 7 9 mph 1014.6mb 63f 62f
6:50am 1.6ft 9s 4s 11 13 mph 1014.2mb 62f 62f
5:50am 2ft 9s 4s 13 16 mph 1013.8mb 62f 62f
4:50am 1.6ft 8s 4s 11 13 mph 1013.4mb 63f 62f
3:50am 1.6ft 10s 5s 13 16 mph 1012.7mb 63f 64f
2:50am 1.6ft 10s 5s 13
mph
1012.4mb 64f 65f
1:50am 1.6ft 5s 5s 7 9 mph 1012.6mb 63f 64f
12:50am 1.6ft 5s 5s 4
mph
1012.4mb 63f 63f
Thu 07/24 11:50pm 2ft 5s 4s 4
mph
1012.6mb 63f 63f
10:50pm 2ft 6s 4s 2
mph
1012.1mb 64f 63f
9:50pm 2ft 4s 4s 4 7 mph 1011.9mb 64f 63f
8:50pm 2ft 5s 4s 2
mph
1011.4mb 64f 63f
7:50pm 2ft 5s 4s 4
mph
1010.8mb 64f 64f
6:50pm 2ft 5s 4s 4
mph
1010.7mb 64f 64f
5:50pm 1.6ft 5s 4s 2 4 mph 1010.8mb 64f 65f
4:50pm 1.6ft 5s 4s 4
mph
1010.5mb 64f 64f
3:50pm 1.6ft 8s 4s 7
mph
1010.5mb 64f 64f
2:50pm 1.6ft 8s 4s 7 9 mph 1010.6mb 64f 64f
1:50pm 1.6ft 9s 4s 9
mph
1010.7mb 63f 64f
12:50pm 1.6ft 8s 4s 9 11 mph 1010.9mb 63f 64f
11:50am 2ft 3s 4s 16 18 mph 1010.4mb 63f 64f
10:50am 1.6ft 7s 4s 16 20 mph 1009.8mb 63f 65f
9:50am 1.3ft 7s 5s 13 18 mph 1009.4mb 63f 64f
8:50am 1.3ft 8s 6s 7 11 mph 1009.1mb 64f 65f
7:50am 1.3ft 7s 5s 7
mph
1008.6mb 63f 65f
6:50am 1.3ft 8s 5s 7 9 mph 1008.4mb 63f 67f
5:50am 1.3ft 8s 6s 9
mph
1008.3mb 63f 67f
4:50am 1.3ft 8s 5s 7 9 mph 1007.7mb 63f 67f
3:50am 1.3ft 8s 5s 9 11 mph 1007.8mb 63f 66f
2:50am 1.3ft 9s 5s 9
mph
1007.4mb 65f 67f
1:50am 1.3ft 8s 5s 7 9 mph 1007.5mb 65f 67f
12:50am 1.3ft 8s 4s 7 9 mph 1007.6mb 66f 68f
Wed 07/23 11:50pm 1.6ft 8s 4s 2 4 mph 1009.1mb 66f 69f
10:50pm 1.6ft 8s 4s 7 9 mph 1008.9mb 66f 68f
9:50pm 2ft 8s 4s 9 11 mph 1009mb 66f 68f
8:50pm 2ft 8s 4s 13 16 mph 1008.3mb 65f 70f
7:50pm 2.5ft 8s 4s 13 16 mph 1008mb 65f 70f
6:50pm 2.5ft 8s 4s 16 18 mph 1008.1mb 66f 73f
5:50pm 2.5ft 8s 4s 16 18 mph 1007.5mb 66f 72f
4:50pm 2.5ft 8s 4s 16 20 mph 1008mb 66f 74f
3:50pm 2ft 8s 4s 16 18 mph 1008.5mb 67f 73f
2:50pm 1.6ft 9s 4s 13 16 mph 1009.3mb 67f 74f
1:50pm 1.6ft 8s 5s 16 18 mph 1010.1mb 67f 74f
12:50pm 1.3ft 7s 5s 9 11 mph 1010.7mb 67f 71f
11:50am 1.6ft 9s 5s 9 13 mph 1011.5mb 66f 70f
10:50am 1.6ft 8s 5s 9 11 mph 1012.1mb 66f 69f
9:50am 1.6ft 8s 5s 4 7 mph 1012.9mb 65f 68f
8:50am 2ft 7s 5s 7 9 mph 1013.1mb 65f 67f
7:50am 2ft 8s 4s 11 13 mph 1013.4mb 64f 67f
6:50am 1.6ft 8s 4s 13 16 mph 1013.3mb 64f 67f
5:50am 2ft 7s 4s 16 18 mph 1013.6mb 64f 67f
4:50am 2ft 8s 5s 13
mph
1013.8mb 64f 66f
3:50am 1.6ft 7s 4s 9 11 mph 1014.2mb 64f 66f
2:50am 1.6ft 8s 5s 11 13 mph 1014.4mb 64f 66f
1:50am 1.6ft 8s 5s 11
mph
1015mb 64f 67f
12:50am 1.6ft 7s 5s 11
mph
1015.3mb 64f 67f
Tue 07/22 11:50pm 2ft 7s 5s 9 11 mph 1015.9mb 64f 67f
10:50pm 2ft 7s 5s 11
mph
1016.1mb 64f 67f
9:50pm 2ft 8s 5s 11 13 mph 1016.2mb 64f 68f
8:50pm 2ft 8s 5s 11
mph
1016.3mb 64f 68f